Lake Tahoe Airport
KTVL : rendu visible

Aérodrome :











RETROUVEZ-NOUS SUR...

 
LOGIN :

S'inscrire | Disclaimer

   EN    FR    IT 

 









Légende :    VFR   VFR Marginal   IFR   IFR Intensif   IFR Très Intensif
Visi : 
Plafond : 
>= 8 km
>= 3000ft
5 à 8 km
1000 à 3000 ft
1500m à 5 km
500 à 1000 ft
800 à 1500m
200 à 500 ft
< 800m
< 200 ft
Symboles :   Orages  Brouillard  Fortes neiges  Fortes précipitations  Vent > 20 kt






- Altitude de l'aérodrome : 6264 ft
- Code IATA : TVL


KTVL - Lake Tahoe

DERNIER METAR :
  • 242353Z AUTO 20007KT 10SM OVC110 07/M04 A3013 RMK AO2 SLP184 T00671039 10072 20050 56005

METARs EXPIRÉS :
  • 242253Z AUTO 18008KT 10SM OVC120 07/M03 A3014 RMK AO2 SLP184 T00671028
  • 242153Z AUTO 18011KT 10SM CLR 07/M04 A3014 RMK AO2 SLP185 T00721039

TAF KTVL
Valide du 25 à 00h jusqu'au 26 à 00h UTC


242350Z 2500/2524 VRB04KT P6SM SCT120 BKN200



MET'MAP, la Météo Aéronautique d'un coup d'oeil ! - Copyright ORBIFLY Décembre 2007 - Disclaimer

ORBIFLY MET'MAP TEAM :

Programmation & Développement : Alexandra Zaïnal
Sur une idée originale de : Baudouin d'Aumeries
Assistance à la programmation : Marc-Olivier Méhu
Soutien technique & logistique : Manuel Goepfert

Contact : metmap@orbifly.com




SOURCES & CREDITS :

   NOAA       Earth
Advisory